Latest Weather Observations for Marree Airport

IDS60801

Issued at 1:05 pm CST Friday 19 September 2014 (issued every 30 minutes, with the page automatically refreshed every 10 minutes)

About weather observations | Map of weather stations | Latest weather observations for SA | Other Formats
Station Details ID: 017126 Name: MARREE AERO Lat: -29.66 Lon: 138.07 Height: 50.0 m
Data from the previous 72 hours. | See also: Recent months for locations in South Australia
Date/Time
CST
Temp
°C
App
Temp
°C
Dew
Point
Rel
Hum
%
Delta-T
°C
Wind Press
QNH
hPa
Press
MSL
hPa
Rain
since 9 am
mm
Dir
 
Spd
km/h
Gust
km/h
Spd
kts
Gust
kts
19/01:00pm 23.5 20.1 -0.7 20 10.8 S 7 11 4 6 1021.9 - 0.0
19/12:30pm 23.3 18.4 -0.2 21 10.6 NE 15 24 8 13 1022.3 - 0.0
19/12:00pm 22.8 18.0 0.0 22 10.3 NNE 15 26 8 14 1022.7 1022.6 0.0
19/11:30am 23.1 18.3 0.2 22 10.4 ENE 15 30 8 16 1023.1 - 0.0
19/11:00am 22.0 15.9 0.5 24 9.8 NE 22 35 12 19 1023.5 - 0.0
19/10:30am 22.0 15.1 -0.1 23 9.9 ENE 26 37 14 20 1023.8 - 0.0
19/10:00am 21.3 14.1 0.5 25 9.4 ENE 28 37 15 20 1024.0 - 0.0
19/09:30am 20.6 12.6 0.4 26 9.1 ENE 32 37 17 20 1024.4 - 0.0
19/09:00am 19.7 11.5 0.2 27 8.6 E 33 39 18 21 1024.4 1024.3 0.0
19/08:30am 18.9 11.9 -0.5 27 8.4 E 26 33 14 18 1024.1 - 0.0
19/08:00am 17.7 10.7 -0.5 29 7.8 E 26 33 14 18 1023.7 - 0.0
19/07:30am 16.5 11.8 0.6 34 6.9 E 15 24 8 13 1023.5 - 0.0
19/07:00am 12.7 9.4 0.1 42 5.2 ESE 7 9 4 5 1023.2 - 0.0
19/06:30am 12.2 7.4 0.3 44 4.9 ESE 15 17 8 9 1023.0 - 0.0
19/06:00am 11.6 7.1 -0.2 44 4.8 SE 13 15 7 8 1022.6 1022.5 0.0
19/05:30am 11.3 7.2 -0.5 44 4.8 SSE 11 13 6 7 1022.1 - 0.0
19/05:00am 11.2 7.4 -0.9 43 4.8 SSE 9 11 5 6 1021.5 - 0.0
19/04:30am 11.5 7.3 -0.9 42 5.0 SE 11 13 6 7 1021.1 - 0.0
19/04:00am 12.1 7.2 -0.4 42 5.1 SE 15 15 8 8 1020.8 - 0.0
19/03:30am 12.8 7.9 -0.8 39 5.5 SSE 15 15 8 8 1020.9 - 0.0
19/03:00am 13.6 8.7 -0.4 38 5.8 SSE 15 19 8 10 1020.9 1020.8 0.0
19/02:30am 14.6 10.1 -0.3 36 6.2 SE 13 17 7 9 1021.1 - 0.0
19/02:00am 16.1 11.3 0.3 34 6.8 SE 15 17 8 9 1021.3 - 0.0
19/01:30am 16.4 12.0 0.1 33 7.0 SE 13 17 7 9 1021.6 - 0.0
19/01:00am 16.7 12.2 -0.1 32 7.2 ESE 13 15 7 8 1022.1 - 0.0
19/12:30am 17.5 12.3 -0.2 30 7.6 E 17 20 9 11 1022.2 - 0.0
19/12:00am 18.5 12.3 -0.3 28 8.1 E 22 26 12 14 1022.5 1022.4 0.0
 
Date/Time
CST
Temp
°C
App
Temp
°C
Dew
Point
Rel
Hum
%
Delta-T
°C
Wind Press
QNH
hPa
Press
MSL
hPa
Rain
since 9 am
mm
Dir
 
Spd
km/h
Gust
km/h
Spd
kts
Gust
kts
18/11:30pm 18.8 14.0 0.4 29 8.1 SSE 15 19 8 10 1022.7 - 0.0
18/11:00pm 18.8 13.8 -1.1 26 8.5 SSE 15 20 8 11 1022.8 - 0.0
18/10:30pm 19.2 14.6 -1.3 25 8.8 SE 13 17 7 9 1023.0 - 0.0
18/10:00pm 19.4 14.8 -1.1 25 8.8 SSE 13 17 7 9 1023.2 - 0.0
18/09:30pm 19.8 14.4 -1.3 24 9.1 SSE 17 20 9 11 1023.4 - 0.0
18/09:00pm 20.0 14.6 -1.2 24 9.1 S 17 20 9 11 1023.5 1023.4 0.0
18/08:30pm 20.3 14.6 -0.9 24 9.2 S 19 22 10 12 1023.2 - 0.0
18/08:00pm 20.7 13.6 -1.2 23 9.5 S 26 33 14 18 1022.7 - 0.0
18/07:30pm 19.9 16.5 -1.8 23 9.3 WNW 6 7 3 4 1022.3 - 0.0
18/07:00pm 19.8 16.1 -2.5 22 9.4 WNW 7 7 4 4 1022.2 - 0.0
18/06:30pm 20.9 18.6 -2.2 21 9.9 CALM 0 0 0 0 1021.8 - 0.0
18/06:00pm 21.4 19.1 -2.5 20 10.1 CALM 0 0 0 0 1021.4 1021.3 0.0
18/05:30pm 22.3 17.9 -2.4 19 10.6 WNW 11 15 6 8 1021.1 - 0.0
18/05:00pm 22.9 20.2 -2.6 18 11.0 SSE 2 7 1 4 1021.0 - 0.0
18/04:30pm 23.1 19.2 -1.8 19 10.9 N 9 17 5 9 1020.6 - 0.0
18/04:00pm 22.9 19.3 -1.9 19 10.8 NNE 7 13 4 7 1020.3 - 0.0
18/03:30pm 23.3 19.3 -2.3 18 11.1 S 9 13 5 7 1020.6 - 0.0
18/03:00pm 23.3 18.2 -1.6 19 10.9 N 15 20 8 11 1020.7 1020.6 0.0
18/02:30pm 23.3 19.7 -2.3 18 11.1 SSE 7 13 4 7 1020.9 - 0.0
18/02:00pm 23.1 18.8 -1.8 19 10.9 W 11 17 6 9 1021.4 - 0.0
18/01:30pm 22.9 18.3 -1.2 20 10.7 NNW 13 19 7 10 1022.1 - 0.0
18/01:00pm 22.7 19.3 -0.7 21 10.4 N 7 15 4 8 1022.4 - 0.0
18/12:30pm 22.7 18.5 -0.7 21 10.4 ENE 11 19 6 10 1023.1 - 0.0
18/12:00pm 22.4 17.9 -0.3 22 10.1 N 13 19 7 10 1023.7 1023.6 0.0
18/11:30am 21.6 16.3 -0.4 23 9.8 N 17 32 9 17 1024.2 - 0.0
18/11:00am 20.5 15.3 -0.2 25 9.2 ENE 17 26 9 14 1024.4 - 0.0
18/10:30am 20.3 15.3 1.2 28 8.7 E 17 32 9 17 1024.8 - 0.0
18/10:00am 19.1 14.1 1.6 31 7.9 ENE 17 26 9 14 1025.3 - 0.0
18/09:30am 18.5 12.9 1.5 32 7.7 E 20 30 11 16 1025.6 - 0.0
18/09:00am 16.8 11.2 1.3 35 6.8 ESE 20 28 11 15 1025.6 1025.5 0.0
18/08:30am 15.3 10.3 1.4 39 6.1 SE 17 22 9 12 1025.3 - 0.0
18/08:00am 13.6 8.1 0.9 42 5.4 SE 19 22 10 12 1024.9 - 0.0
18/07:30am 11.1 5.8 -0.4 45 4.6 SE 17 20 9 11 1024.8 - 0.0
18/07:00am 9.5 4.2 -0.7 49 4.0 SSE 17 20 9 11 1024.5 - 0.0
18/06:30am 8.2 2.8 -1.1 52 3.6 SSE 17 19 9 10 1024.1 - 0.0
18/06:00am 8.2 2.8 -1.3 51 3.6 SSE 17 20 9 11 1023.9 1023.8 0.0
18/05:30am 8.2 2.8 -1.3 51 3.6 SSE 17 19 9 10 1023.5 - 0.0
18/05:00am 8.4 3.4 -1.1 51 3.7 SSE 15 17 8 9 1023.3 - 0.0
18/04:30am 8.7 3.4 -0.9 51 3.7 SSE 17 19 9 10 1023.1 - 0.0
18/04:00am 9.4 3.8 -0.2 51 3.8 SSE 19 22 10 12 1022.8 - 0.0
18/03:30am 9.5 4.7 0.1 52 3.8 S 15 17 8 9 1023.0 - 0.0
18/03:00am 8.5 3.9 -1.0 51 3.7 SSE 13 15 7 8 1022.9 1022.8 0.0
18/02:30am 8.6 3.9 -1.5 49 3.9 SE 13 13 7 7 1023.1 - 0.0
18/02:00am 9.6 5.4 -1.1 47 4.2 SE 11 13 6 7 1023.4 - 0.0
18/01:30am 10.3 5.4 -0.5 47 4.3 SE 15 17 8 9 1023.5 - 0.0
18/01:00am 10.7 6.1 -0.7 45 4.5 S 13 15 7 8 1023.5 - 0.0
18/12:30am 12.0 7.5 -0.5 42 5.1 S 13 15 7 8 1023.8 - 0.0
18/12:00am 12.8 7.9 -0.4 40 5.4 S 15 17 8 9 1023.8 1023.7 0.0
 
Date/Time
CST
Temp
°C
App
Temp
°C
Dew
Point
Rel
Hum
%
Delta-T
°C
Wind Press
QNH
hPa
Press
MSL
hPa
Rain
since 9 am
mm
Dir
 
Spd
km/h
Gust
km/h
Spd
kts
Gust
kts
17/11:30pm 12.4 7.4 -1.5 38 5.5 S 15 17 8 9 1023.8 - 0.0
17/11:00pm 13.0 8.0 -1.3 37 5.8 SSW 15 17 8 9 1023.8 - 0.0
17/10:30pm 12.4 7.7 -1.9 37 5.7 SW 13 15 7 8 1023.8 - 0.0
17/10:00pm 12.8 8.4 -2.3 35 5.9 SSW 11 13 6 7 1023.6 - 0.0
17/09:30pm 13.9 9.9 -2.1 33 6.4 SW 9 11 5 6 1023.5 - 0.0
17/09:00pm 15.3 10.2 -1.7 31 6.9 S 15 17 8 9 1023.0 1022.9 0.0
17/08:30pm 16.2 10.7 -1.8 29 7.4 S 17 20 9 11 1022.8 - 0.0
17/08:00pm 16.1 10.2 -2.4 28 7.5 S 19 20 10 11 1022.6 - 0.0
17/07:30pm 17.0 11.8 -2.6 26 8.0 SSW 15 17 8 9 1022.3 - 0.0
17/07:00pm 18.0 12.7 -3.4 23 8.7 SSW 15 20 8 11 1021.7 - 0.0
17/06:30pm 19.2 13.1 -3.6 21 9.3 S 19 24 10 13 1021.4 - 0.0
17/06:00pm 20.5 14.5 -3.2 20 9.8 S 19 24 10 13 1021.1 1021.0 0.0
17/05:30pm 21.3 14.2 -4.7 17 10.6 SSW 24 30 13 16 1020.7 - 0.0
17/05:00pm 21.9 15.7 -3.5 18 10.7 SSW 20 30 11 16 1020.4 - 0.0
17/04:30pm 22.4 15.6 -1.6 20 10.5 S 24 33 13 18 1020.1 - 0.0
17/04:00pm 22.4 15.8 -3.1 18 10.8 SSW 22 32 12 17 1019.7 - 0.0
17/03:30pm 22.5 16.5 -1.6 20 10.6 SW 20 30 11 16 1019.8 - 0.0
17/03:00pm 22.3 16.2 -2.4 19 10.6 WSW 20 32 11 17 1019.9 1019.8 0.0
17/02:30pm 22.4 16.3 -3.8 17 11.0 SW 19 28 10 15 1020.2 - 0.0
17/02:00pm 22.5 16.7 -1.6 20 10.6 SSW 19 32 10 17 1020.3 - 0.0
17/01:30pm 22.7 16.9 -0.1 22 10.3 SW 20 30 11 16 1020.6 - 0.0
17/01:00pm 22.2 15.0 0.7 24 9.8 WSW 28 50 15 27 1021.0 - 0.0
17/12:30pm 21.7 14.5 0.8 25 9.5 WSW 28 35 15 19 1021.2 - 0.0
17/12:00pm 21.1 15.6 0.3 25 9.3 SW 19 33 10 18 1021.6 1021.5 0.0
17/11:30am 21.6 15.6 0.8 25 9.5 WSW 22 32 12 17 1022.0 - 0.0
17/11:00am 20.9 15.6 1.7 28 8.9 SSW 19 28 10 15 1022.3 - 0.0
17/10:30am 20.2 15.4 2.5 31 8.2 S 17 28 9 15 1022.6 - 0.0
17/10:00am 19.8 14.7 3.9 35 7.6 S 20 26 11 14 1022.9 - 0.0
17/09:30am 18.8 13.6 5.3 41 6.6 S 22 30 12 16 1023.0 - 0.0
17/09:00am 17.8 11.9 6.0 46 5.8 S 26 32 14 17 1023.0 1022.9 0.0
17/08:30am 16.7 11.0 6.5 51 5.0 SSE 26 32 14 17 1022.6 - 0.0
17/08:00am 15.7 9.2 6.7 55 4.4 S 30 35 16 19 1022.3 - 0.0
17/07:30am 14.3 8.9 6.4 59 3.8 S 24 30 13 16 1021.7 - 0.0
17/07:00am 12.4 8.4 5.1 61 3.4 S 15 17 8 9 1021.4 - 0.0
17/06:30am 11.7 6.8 5.1 64 3.0 S 20 24 11 13 1021.0 - 0.0
17/06:00am 11.0 7.4 2.8 57 3.5 S 11 13 6 7 1020.7 1020.6 0.0
17/05:30am 12.1 8.9 3.1 54 4.0 S 9 13 5 7 1020.2 - 0.0
17/05:00am 12.8 8.4 2.9 51 4.4 S 15 19 8 10 1019.7 - 0.0
17/04:30am 13.4 8.0 2.3 47 4.9 S 20 24 11 13 1019.0 - 0.0
17/04:00am 14.1 8.5 1.4 42 5.5 S 20 24 11 13 1018.7 - 0.0
17/03:30am 14.5 8.6 1.4 41 5.7 S 22 26 12 14 1018.4 - 0.0
17/03:00am 13.1 8.8 1.1 44 5.1 S 13 15 7 8 1018.7 1018.6 0.0
17/02:30am 12.5 7.8 0.6 44 5.0 S 15 17 8 9 1018.8 - 0.0
17/02:00am 13.1 8.0 0.8 43 5.2 S 17 19 9 10 1019.1 - 0.0
17/01:30am 13.1 7.6 0.8 43 5.2 SSW 19 20 10 11 1019.5 - 0.0
17/01:00am 13.6 8.5 0.6 41 5.5 SSW 17 19 9 10 1019.5 - 0.0
17/12:30am 14.1 9.0 0.7 40 5.7 SSW 17 17 9 9 1019.7 - 0.0
17/12:00am 14.3 9.5 0.5 39 5.8 S 15 17 8 9 1019.8 1019.7 0.0
 
Date/Time
CST
Temp
°C
App
Temp
°C
Dew
Point
Rel
Hum
%
Delta-T
°C
Wind Press
QNH
hPa
Press
MSL
hPa
Rain
since 9 am
mm
Dir
 
Spd
km/h
Gust
km/h
Spd
kts
Gust
kts
16/11:30pm 15.2 10.0 0.2 36 6.4 S 17 20 9 11 1020.1 - 0.0
16/11:00pm 16.1 10.4 0.3 34 6.8 SSW 20 22 11 12 1020.1 - 0.0
16/10:30pm 16.0 10.4 -0.2 33 6.9 SSW 19 22 10 12 1019.9 - 0.0
16/10:00pm 15.9 10.3 -0.3 33 6.9 SSW 19 22 10 12 1020.0 - 0.0
16/09:30pm 15.5 9.7 0.1 35 6.6 SSW 20 24 11 13 1019.9 - 0.0
16/09:00pm 15.0 10.6 0.1 36 6.3 SSW 13 15 7 8 1019.6 1019.5 0.0
16/08:30pm 15.8 11.0 0.4 35 6.6 SSW 15 17 8 9 1019.4 - 0.0
16/08:00pm 16.7 12.4 0.8 34 7.0 SSW 13 15 7 8 1019.0 - 0.0
16/07:30pm 17.3 12.9 0.5 32 7.3 S 13 15 7 8 1018.7 - 0.0
16/07:00pm 18.9 14.2 1.0 30 8.0 SSW 15 17 8 9 1018.1 - 0.0
16/06:30pm 20.2 14.8 1.1 28 8.7 SSW 19 22 10 12 1017.7 - 0.0
16/06:00pm 20.9 15.3 0.2 25 9.3 SSW 19 24 10 13 1017.3 1017.2 0.0
16/05:30pm 21.5 15.4 0.7 25 9.5 SSW 22 30 12 16 1016.9 - 0.0
16/05:00pm 22.5 17.5 -0.9 21 10.4 SW 15 28 8 15 1016.6 - 0.0
16/04:30pm 22.3 16.4 -1.1 21 10.3 SW 20 32 11 17 1016.8 - 0.0
16/04:00pm 22.9 16.3 -0.6 21 10.5 SW 24 32 13 17 1016.7 - 0.0
16/03:30pm 22.9 17.2 0.7 23 10.2 WSW 20 32 11 17 1016.6 - 0.0
16/03:00pm 22.5 16.9 -0.3 22 10.2 WSW 19 30 10 16 1016.8 1016.7 0.0
16/02:30pm 23.3 17.6 0.4 22 10.5 S 20 28 11 15 1017.1 - 0.0
16/02:00pm 22.6 17.6 1.6 25 9.8 SSW 17 30 9 16 1017.4 - 0.0
16/01:30pm 22.1 17.4 1.2 25 9.6 W 15 28 8 15 1017.8 - 0.0

Other Formats:

Comma delimited format used in spreadsheet applications
http://www.bom.gov.au/fwo/IDS60801/IDS60801.95480.axf

JavaScript Object Notation format (JSON) in row-major order
http://www.bom.gov.au/fwo/IDS60801/IDS60801.95480.json